sensor_id;sensor_type;location;lat;lon;timestamp;P1;durP1;ratioP1;P2;durP2;ratioP2
56321;SDS011;42227;6.376;-10.782;2022-07-23T00:01:25;30.60;;;17.02;;
56321;SDS011;42227;6.376;-10.782;2022-07-23T00:03:54;20.70;;;13.48;;
56321;SDS011;42227;6.376;-10.782;2022-07-23T00:06:23;30.00;;;13.32;;
56321;SDS011;42227;6.376;-10.782;2022-07-23T00:08:52;22.50;;;13.30;;
56321;SDS011;42227;6.376;-10.782;2022-07-23T00:11:20;20.13;;;12.52;;
56321;SDS011;42227;6.376;-10.782;2022-07-23T00:13:49;25.33;;;13.77;;
56321;SDS011;42227;6.376;-10.782;2022-07-23T00:16:17;22.70;;;11.95;;
56321;SDS011;42227;6.376;-10.782;2022-07-23T00:18:45;22.42;;;13.73;;
56321;SDS011;42227;6.376;-10.782;2022-07-23T00:21:13;18.00;;;11.05;;
56321;SDS011;42227;6.376;-10.782;2022-07-23T00:23:42;18.70;;;12.27;;
56321;SDS011;42227;6.376;-10.782;2022-07-23T00:26:10;21.10;;;12.63;;
56321;SDS011;42227;6.376;-10.782;2022-07-23T00:28:39;16.55;;;12.02;;
56321;SDS011;42227;6.376;-10.782;2022-07-23T00:31:07;49.60;;;17.20;;
56321;SDS011;42227;6.376;-10.782;2022-07-23T00:33:36;29.92;;;15.23;;
56321;SDS011;42227;6.376;-10.782;2022-07-23T00:36:04;27.50;;;14.57;;
56321;SDS011;42227;6.376;-10.782;2022-07-23T00:38:33;31.52;;;16.88;;
56321;SDS011;42227;6.376;-10.782;2022-07-23T00:41:02;23.88;;;12.30;;
56321;SDS011;42227;6.376;-10.782;2022-07-23T00:43:30;18.13;;;11.68;;
56321;SDS011;42227;6.376;-10.782;2022-07-23T00:45:59;22.90;;;11.93;;
56321;SDS011;42227;6.376;-10.782;2022-07-23T00:48:28;22.80;;;12.75;;
56321;SDS011;42227;6.376;-10.782;2022-07-23T00:50:56;18.63;;;11.23;;
56321;SDS011;42227;6.376;-10.782;2022-07-23T00:53:25;17.40;;;11.38;;
56321;SDS011;42227;6.376;-10.782;2022-07-23T00:55:53;18.83;;;12.27;;
56321;SDS011;42227;6.376;-10.782;2022-07-23T00:58:21;22.40;;;11.73;;
56321;SDS011;42227;6.376;-10.782;2022-07-23T01:00:50;27.55;;;12.63;;
56321;SDS011;42227;6.376;-10.782;2022-07-23T01:03:18;21.17;;;13.48;;
56321;SDS011;42227;6.376;-10.782;2022-07-23T01:05:47;26.05;;;13.77;;
56321;SDS011;42227;6.376;-10.782;2022-07-23T01:08:16;30.80;;;19.27;;
56321;SDS011;42227;6.376;-10.782;2022-07-23T01:10:44;29.75;;;23.63;;
56321;SDS011;42227;6.376;-10.782;2022-07-23T01:13:14;46.70;;;27.38;;
56321;SDS011;42227;6.376;-10.782;2022-07-23T01:15:43;39.10;;;28.92;;
56321;SDS011;42227;6.376;-10.782;2022-07-23T01:18:11;35.10;;;29.20;;
56321;SDS011;42227;6.376;-10.782;2022-07-23T01:20:40;36.10;;;30.50;;
56321;SDS011;42227;6.376;-10.782;2022-07-23T01:23:08;37.33;;;31.17;;
56321;SDS011;42227;6.376;-10.782;2022-07-23T01:25:52;41.15;;;26.90;;
56321;SDS011;42227;6.376;-10.782;2022-07-23T01:28:22;32.72;;;22.05;;
56321;SDS011;42227;6.376;-10.782;2022-07-23T01:30:51;30.63;;;17.70;;
56321;SDS011;42227;6.376;-10.782;2022-07-23T01:33:19;22.52;;;15.48;;
56321;SDS011;42227;6.376;-10.782;2022-07-23T01:35:47;24.90;;;15.88;;
56321;SDS011;42227;6.376;-10.782;2022-07-23T01:38:21;22.52;;;13.90;;
56321;SDS011;42227;6.376;-10.782;2022-07-23T01:40:49;20.67;;;13.30;;
56321;SDS011;42227;6.376;-10.782;2022-07-23T01:43:27;25.00;;;14.88;;
56321;SDS011;42227;6.376;-10.782;2022-07-23T01:45:56;22.27;;;14.65;;
56321;SDS011;42227;6.376;-10.782;2022-07-23T01:48:30;28.40;;;19.40;;
56321;SDS011;42227;6.376;-10.782;2022-07-23T01:51:17;32.65;;;19.98;;
56321;SDS011;42227;6.376;-10.782;2022-07-23T01:53:54;42.45;;;22.80;;
56321;SDS011;42227;6.376;-10.782;2022-07-23T01:56:23;33.70;;;23.13;;
56321;SDS011;42227;6.376;-10.782;2022-07-23T01:58:51;36.90;;;24.85;;
56321;SDS011;42227;6.376;-10.782;2022-07-23T02:01:21;39.55;;;24.50;;
56321;SDS011;42227;6.376;-10.782;2022-07-23T02:03:49;28.33;;;18.58;;
56321;SDS011;42227;6.376;-10.782;2022-07-23T02:06:17;32.90;;;16.42;;
56321;SDS011;42227;6.376;-10.782;2022-07-23T02:08:46;26.17;;;17.60;;
56321;SDS011;42227;6.376;-10.782;2022-07-23T02:11:14;24.48;;;14.45;;
56321;SDS011;42227;6.376;-10.782;2022-07-23T02:13:42;27.13;;;13.70;;
56321;SDS011;42227;6.376;-10.782;2022-07-23T02:16:10;20.05;;;12.55;;
56321;SDS011;42227;6.376;-10.782;2022-07-23T02:18:39;20.55;;;13.32;;
56321;SDS011;42227;6.376;-10.782;2022-07-23T02:21:07;26.65;;;13.18;;
56321;SDS011;42227;6.376;-10.782;2022-07-23T02:23:35;29.35;;;15.25;;
56321;SDS011;42227;6.376;-10.782;2022-07-23T02:26:04;16.73;;;14.15;;
56321;SDS011;42227;6.376;-10.782;2022-07-23T02:28:32;34.78;;;17.38;;
56321;SDS011;42227;6.376;-10.782;2022-07-23T02:31:01;26.27;;;15.25;;
56321;SDS011;42227;6.376;-10.782;2022-07-23T02:33:29;18.60;;;13.50;;
56321;SDS011;42227;6.376;-10.782;2022-07-23T02:35:58;27.02;;;14.93;;
56321;SDS011;42227;6.376;-10.782;2022-07-23T02:38:27;27.95;;;14.60;;
56321;SDS011;42227;6.376;-10.782;2022-07-23T02:40:56;24.45;;;15.45;;
56321;SDS011;42227;6.376;-10.782;2022-07-23T02:43:24;28.48;;;16.42;;
56321;SDS011;42227;6.376;-10.782;2022-07-23T02:45:52;31.85;;;14.57;;
56321;SDS011;42227;6.376;-10.782;2022-07-23T02:48:21;28.40;;;13.93;;
56321;SDS011;42227;6.376;-10.782;2022-07-23T02:50:49;19.42;;;13.10;;
56321;SDS011;42227;6.376;-10.782;2022-07-23T02:53:22;22.75;;;15.93;;
56321;SDS011;42227;6.376;-10.782;2022-07-23T02:55:51;21.73;;;13.23;;
56321;SDS011;42227;6.376;-10.782;2022-07-23T02:58:21;22.75;;;14.82;;
56321;SDS011;42227;6.376;-10.782;2022-07-23T03:00:49;23.02;;;14.18;;
56321;SDS011;42227;6.376;-10.782;2022-07-23T03:03:17;27.27;;;15.13;;
56321;SDS011;42227;6.376;-10.782;2022-07-23T03:05:46;23.20;;;13.20;;
56321;SDS011;42227;6.376;-10.782;2022-07-23T03:08:15;18.58;;;10.85;;
56321;SDS011;42227;6.376;-10.782;2022-07-23T03:10:48;21.88;;;12.82;;
56321;SDS011;42227;6.376;-10.782;2022-07-23T03:13:17;19.55;;;11.98;;
56321;SDS011;42227;6.376;-10.782;2022-07-23T03:15:45;21.92;;;12.15;;
56321;SDS011;42227;6.376;-10.782;2022-07-23T03:18:13;24.80;;;13.05;;
56321;SDS011;42227;6.376;-10.782;2022-07-23T03:20:42;18.63;;;11.93;;
56321;SDS011;42227;6.376;-10.782;2022-07-23T03:23:10;23.02;;;14.13;;
56321;SDS011;42227;6.376;-10.782;2022-07-23T03:25:39;20.83;;;14.43;;
56321;SDS011;42227;6.376;-10.782;2022-07-23T03:28:08;20.50;;;13.52;;
56321;SDS011;42227;6.376;-10.782;2022-07-23T03:30:36;21.50;;;13.48;;
56321;SDS011;42227;6.376;-10.782;2022-07-23T03:33:04;26.10;;;13.80;;
56321;SDS011;42227;6.376;-10.782;2022-07-23T03:35:32;18.73;;;12.50;;
56321;SDS011;42227;6.376;-10.782;2022-07-23T03:38:11;26.77;;;12.10;;
56321;SDS011;42227;6.376;-10.782;2022-07-23T03:40:40;23.30;;;12.48;;
56321;SDS011;42227;6.376;-10.782;2022-07-23T03:43:08;32.30;;;12.98;;
56321;SDS011;42227;6.376;-10.782;2022-07-23T03:45:36;23.45;;;13.80;;
56321;SDS011;42227;6.376;-10.782;2022-07-23T03:48:05;16.88;;;12.32;;
56321;SDS011;42227;6.376;-10.782;2022-07-23T03:50:33;22.77;;;13.70;;
56321;SDS011;42227;6.376;-10.782;2022-07-23T03:53:01;25.48;;;11.98;;
56321;SDS011;42227;6.376;-10.782;2022-07-23T03:55:32;27.73;;;13.18;;
56321;SDS011;42227;6.376;-10.782;2022-07-23T03:58:00;13.57;;;11.18;;
56321;SDS011;42227;6.376;-10.782;2022-07-23T04:00:30;26.20;;;13.52;;
56321;SDS011;42227;6.376;-10.782;2022-07-23T04:02:58;22.38;;;12.70;;
56321;SDS011;42227;6.376;-10.782;2022-07-23T04:05:28;27.35;;;15.13;;
56321;SDS011;42227;6.376;-10.782;2022-07-23T04:08:05;34.03;;;18.70;;
56321;SDS011;42227;6.376;-10.782;2022-07-23T04:10:37;22.98;;;15.40;;
56321;SDS011;42227;6.376;-10.782;2022-07-23T04:13:07;36.55;;;18.55;;
56321;SDS011;42227;6.376;-10.782;2022-07-23T04:15:36;29.52;;;18.85;;
56321;SDS011;42227;6.376;-10.782;2022-07-23T04:18:05;24.08;;;16.27;;
56321;SDS011;42227;6.376;-10.782;2022-07-23T04:20:44;28.15;;;16.33;;
56321;SDS011;42227;6.376;-10.782;2022-07-23T04:23:12;23.23;;;16.60;;
56321;SDS011;42227;6.376;-10.782;2022-07-23T04:25:42;27.80;;;16.25;;
56321;SDS011;42227;6.376;-10.782;2022-07-23T04:28:11;23.05;;;16.65;;
56321;SDS011;42227;6.376;-10.782;2022-07-23T04:30:40;21.65;;;16.33;;
56321;SDS011;42227;6.376;-10.782;2022-07-23T04:33:11;28.45;;;17.48;;
56321;SDS011;42227;6.376;-10.782;2022-07-23T04:35:40;20.40;;;14.63;;
56321;SDS011;42227;6.376;-10.782;2022-07-23T04:38:17;35.58;;;17.48;;
56321;SDS011;42227;6.376;-10.782;2022-07-23T04:40:48;27.65;;;16.67;;
56321;SDS011;42227;6.376;-10.782;2022-07-23T04:43:17;29.23;;;15.85;;
56321;SDS011;42227;6.376;-10.782;2022-07-23T04:45:48;25.23;;;18.15;;
56321;SDS011;42227;6.376;-10.782;2022-07-23T04:48:17;25.02;;;18.27;;
56321;SDS011;42227;6.376;-10.782;2022-07-23T04:50:51;31.05;;;19.48;;
56321;SDS011;42227;6.376;-10.782;2022-07-23T04:53:22;27.83;;;17.65;;
56321;SDS011;42227;6.376;-10.782;2022-07-23T04:55:53;30.60;;;19.58;;
56321;SDS011;42227;6.376;-10.782;2022-07-23T04:58:22;34.25;;;19.13;;
56321;SDS011;42227;6.376;-10.782;2022-07-23T05:00:50;25.08;;;16.60;;
56321;SDS011;42227;6.376;-10.782;2022-07-23T05:03:19;24.23;;;17.50;;
56321;SDS011;42227;6.376;-10.782;2022-07-23T05:05:47;24.92;;;17.33;;
56321;SDS011;42227;6.376;-10.782;2022-07-23T05:08:17;23.70;;;16.77;;
56321;SDS011;42227;6.376;-10.782;2022-07-23T05:10:50;28.20;;;18.30;;
56321;SDS011;42227;6.376;-10.782;2022-07-23T05:13:19;20.80;;;17.52;;
56321;SDS011;42227;6.376;-10.782;2022-07-23T05:15:50;23.05;;;16.80;;
56321;SDS011;42227;6.376;-10.782;2022-07-23T05:18:19;24.48;;;17.13;;
56321;SDS011;42227;6.376;-10.782;2022-07-23T05:20:48;24.60;;;19.25;;
56321;SDS011;42227;6.376;-10.782;2022-07-23T05:23:19;28.83;;;18.77;;
56321;SDS011;42227;6.376;-10.782;2022-07-23T05:25:48;34.22;;;18.85;;
56321;SDS011;42227;6.376;-10.782;2022-07-23T05:28:17;30.48;;;20.80;;
56321;SDS011;42227;6.376;-10.782;2022-07-23T05:30:50;34.28;;;20.58;;
56321;SDS011;42227;6.376;-10.782;2022-07-23T05:33:20;41.33;;;21.45;;
56321;SDS011;42227;6.376;-10.782;2022-07-23T05:35:49;28.55;;;21.58;;
56321;SDS011;42227;6.376;-10.782;2022-07-23T05:38:25;28.02;;;17.20;;
56321;SDS011;42227;6.376;-10.782;2022-07-23T05:40:56;37.38;;;19.48;;
56321;SDS011;42227;6.376;-10.782;2022-07-23T05:43:25;26.67;;;19.85;;
56321;SDS011;42227;6.376;-10.782;2022-07-23T05:45:53;29.63;;;21.02;;
56321;SDS011;42227;6.376;-10.782;2022-07-23T05:48:23;38.90;;;21.33;;
56321;SDS011;42227;6.376;-10.782;2022-07-23T05:51:05;31.88;;;21.20;;
56321;SDS011;42227;6.376;-10.782;2022-07-23T05:53:34;36.92;;;21.63;;
56321;SDS011;42227;6.376;-10.782;2022-07-23T05:56:15;30.63;;;22.08;;
56321;SDS011;42227;6.376;-10.782;2022-07-23T05:58:45;26.40;;;20.25;;
56321;SDS011;42227;6.376;-10.782;2022-07-23T06:01:16;24.45;;;20.95;;
56321;SDS011;42227;6.376;-10.782;2022-07-23T06:03:54;34.58;;;23.23;;
56321;SDS011;42227;6.376;-10.782;2022-07-23T06:06:30;25.42;;;20.98;;
56321;SDS011;42227;6.376;-10.782;2022-07-23T06:08:58;22.20;;;19.00;;
56321;SDS011;42227;6.376;-10.782;2022-07-23T06:11:27;26.23;;;18.58;;
56321;SDS011;42227;6.376;-10.782;2022-07-23T06:13:56;22.15;;;19.15;;
56321;SDS011;42227;6.376;-10.782;2022-07-23T06:16:36;25.80;;;19.80;;
56321;SDS011;42227;6.376;-10.782;2022-07-23T06:19:05;21.63;;;17.10;;
56321;SDS011;42227;6.376;-10.782;2022-07-23T06:21:33;26.67;;;18.38;;
56321;SDS011;42227;6.376;-10.782;2022-07-23T06:24:13;24.08;;;18.67;;
56321;SDS011;42227;6.376;-10.782;2022-07-23T06:26:42;25.67;;;20.52;;
56321;SDS011;42227;6.376;-10.782;2022-07-23T06:29:10;24.30;;;20.45;;
56321;SDS011;42227;6.376;-10.782;2022-07-23T06:31:39;38.03;;;19.15;;
56321;SDS011;42227;6.376;-10.782;2022-07-23T06:34:07;29.67;;;20.35;;
56321;SDS011;42227;6.376;-10.782;2022-07-23T06:36:35;35.13;;;17.85;;
56321;SDS011;42227;6.376;-10.782;2022-07-23T06:39:05;30.50;;;18.88;;
56321;SDS011;42227;6.376;-10.782;2022-07-23T06:41:35;27.27;;;17.02;;
56321;SDS011;42227;6.376;-10.782;2022-07-23T06:44:04;27.10;;;16.60;;
56321;SDS011;42227;6.376;-10.782;2022-07-23T06:46:34;33.25;;;17.85;;
56321;SDS011;42227;6.376;-10.782;2022-07-23T06:49:06;27.10;;;21.85;;
56321;SDS011;42227;6.376;-10.782;2022-07-23T06:51:34;25.58;;;21.80;;
56321;SDS011;42227;6.376;-10.782;2022-07-23T06:54:04;25.33;;;20.65;;
56321;SDS011;42227;6.376;-10.782;2022-07-23T06:56:33;33.85;;;24.75;;
56321;SDS011;42227;6.376;-10.782;2022-07-23T06:59:01;46.72;;;25.92;;
56321;SDS011;42227;6.376;-10.782;2022-07-23T07:01:30;36.08;;;23.95;;
56321;SDS011;42227;6.376;-10.782;2022-07-23T07:03:59;31.05;;;23.23;;
56321;SDS011;42227;6.376;-10.782;2022-07-23T07:06:27;35.92;;;25.75;;
56321;SDS011;42227;6.376;-10.782;2022-07-23T07:08:55;28.65;;;22.42;;
56321;SDS011;42227;6.376;-10.782;2022-07-23T07:11:24;29.63;;;21.88;;
56321;SDS011;42227;6.376;-10.782;2022-07-23T07:13:52;31.23;;;24.05;;
56321;SDS011;42227;6.376;-10.782;2022-07-23T07:16:20;30.48;;;22.77;;
56321;SDS011;42227;6.376;-10.782;2022-07-23T07:18:49;34.42;;;23.15;;
56321;SDS011;42227;6.376;-10.782;2022-07-23T07:21:17;32.67;;;24.88;;
56321;SDS011;42227;6.376;-10.782;2022-07-23T07:23:45;37.28;;;24.02;;
56321;SDS011;42227;6.376;-10.782;2022-07-23T07:26:14;30.23;;;24.10;;
56321;SDS011;42227;6.376;-10.782;2022-07-23T07:28:42;34.55;;;23.40;;
56321;SDS011;42227;6.376;-10.782;2022-07-23T07:31:11;43.35;;;27.48;;
56321;SDS011;42227;6.376;-10.782;2022-07-23T07:33:39;33.85;;;24.00;;
56321;SDS011;42227;6.376;-10.782;2022-07-23T07:36:07;35.13;;;20.58;;
56321;SDS011;42227;6.376;-10.782;2022-07-23T07:38:40;35.00;;;23.55;;
56321;SDS011;42227;6.376;-10.782;2022-07-23T07:41:24;33.00;;;25.23;;
56321;SDS011;42227;6.376;-10.782;2022-07-23T07:43:53;32.90;;;27.38;;
56321;SDS011;42227;6.376;-10.782;2022-07-23T07:46:21;41.38;;;25.90;;
56321;SDS011;42227;6.376;-10.782;2022-07-23T07:48:50;31.63;;;23.25;;
56321;SDS011;42227;6.376;-10.782;2022-07-23T07:51:24;32.35;;;24.27;;
56321;SDS011;42227;6.376;-10.782;2022-07-23T07:53:53;23.58;;;19.20;;
56321;SDS011;42227;6.376;-10.782;2022-07-23T07:56:21;25.70;;;19.45;;
56321;SDS011;42227;6.376;-10.782;2022-07-23T07:58:50;28.98;;;18.90;;
56321;SDS011;42227;6.376;-10.782;2022-07-23T08:01:19;25.80;;;18.77;;
56321;SDS011;42227;6.376;-10.782;2022-07-23T08:03:47;37.92;;;22.30;;
56321;SDS011;42227;6.376;-10.782;2022-07-23T08:06:16;27.80;;;20.40;;
56321;SDS011;42227;6.376;-10.782;2022-07-23T08:08:47;24.45;;;18.25;;
56321;SDS011;42227;6.376;-10.782;2022-07-23T08:11:15;26.80;;;19.77;;
56321;SDS011;42227;6.376;-10.782;2022-07-23T08:13:44;27.35;;;17.15;;
56321;SDS011;42227;6.376;-10.782;2022-07-23T08:16:12;35.30;;;19.60;;
56321;SDS011;42227;6.376;-10.782;2022-07-23T08:18:41;27.42;;;19.75;;
56321;SDS011;42227;6.376;-10.782;2022-07-23T08:21:09;28.15;;;19.55;;
56321;SDS011;42227;6.376;-10.782;2022-07-23T08:23:37;24.73;;;15.35;;
56321;SDS011;42227;6.376;-10.782;2022-07-23T08:26:05;26.55;;;16.33;;
56321;SDS011;42227;6.376;-10.782;2022-07-23T08:28:34;23.08;;;12.90;;
56321;SDS011;42227;6.376;-10.782;2022-07-23T08:31:02;17.23;;;12.43;;
56321;SDS011;42227;6.376;-10.782;2022-07-23T08:33:31;20.38;;;13.40;;
56321;SDS011;42227;6.376;-10.782;2022-07-23T08:36:04;20.23;;;14.68;;
56321;SDS011;42227;6.376;-10.782;2022-07-23T08:38:32;22.83;;;13.50;;
56321;SDS011;42227;6.376;-10.782;2022-07-23T08:41:01;20.63;;;14.15;;
56321;SDS011;42227;6.376;-10.782;2022-07-23T08:43:31;25.40;;;13.30;;
56321;SDS011;42227;6.376;-10.782;2022-07-23T08:46:00;18.55;;;14.48;;
56321;SDS011;42227;6.376;-10.782;2022-07-23T08:48:32;17.08;;;12.63;;
56321;SDS011;42227;6.376;-10.782;2022-07-23T08:51:03;17.08;;;14.02;;
56321;SDS011;42227;6.376;-10.782;2022-07-23T08:53:34;17.50;;;13.70;;
56321;SDS011;42227;6.376;-10.782;2022-07-23T08:56:03;21.13;;;12.70;;
56321;SDS011;42227;6.376;-10.782;2022-07-23T08:58:34;18.67;;;12.10;;
56321;SDS011;42227;6.376;-10.782;2022-07-23T09:01:02;19.60;;;12.82;;
56321;SDS011;42227;6.376;-10.782;2022-07-23T09:03:33;22.33;;;13.90;;
56321;SDS011;42227;6.376;-10.782;2022-07-23T09:06:03;19.83;;;13.70;;
56321;SDS011;42227;6.376;-10.782;2022-07-23T09:08:41;15.43;;;12.60;;
56321;SDS011;42227;6.376;-10.782;2022-07-23T09:11:12;17.70;;;13.37;;
56321;SDS011;42227;6.376;-10.782;2022-07-23T09:13:47;20.42;;;14.18;;
56321;SDS011;42227;6.376;-10.782;2022-07-23T09:16:27;20.80;;;14.98;;
56321;SDS011;42227;6.376;-10.782;2022-07-23T09:18:58;18.73;;;11.57;;
56321;SDS011;42227;6.376;-10.782;2022-07-23T09:21:29;19.23;;;10.25;;
56321;SDS011;42227;6.376;-10.782;2022-07-23T09:24:02;21.23;;;10.60;;
56321;SDS011;42227;6.376;-10.782;2022-07-23T09:26:41;21.63;;;11.50;;
56321;SDS011;42227;6.376;-10.782;2022-07-23T09:29:21;15.15;;;10.82;;
56321;SDS011;42227;6.376;-10.782;2022-07-23T09:40:07;26.88;;;12.05;;
56321;SDS011;42227;6.376;-10.782;2022-07-23T09:42:36;28.55;;;12.85;;
56321;SDS011;42227;6.376;-10.782;2022-07-23T09:45:06;20.23;;;11.10;;
56321;SDS011;42227;6.376;-10.782;2022-07-23T09:47:38;16.13;;;10.95;;
56321;SDS011;42227;6.376;-10.782;2022-07-23T09:50:07;20.85;;;11.18;;
56321;SDS011;42227;6.376;-10.782;2022-07-23T09:52:45;23.45;;;12.63;;
56321;SDS011;42227;6.376;-10.782;2022-07-23T09:55:15;18.85;;;10.57;;
56321;SDS011;42227;6.376;-10.782;2022-07-23T09:57:45;21.75;;;12.27;;
56321;SDS011;42227;6.376;-10.782;2022-07-23T10:00:14;16.20;;;11.05;;
56321;SDS011;42227;6.376;-10.782;2022-07-23T10:02:42;22.48;;;11.55;;
56321;SDS011;42227;6.376;-10.782;2022-07-23T10:05:27;21.95;;;12.45;;
56321;SDS011;42227;6.376;-10.782;2022-07-23T10:08:16;15.18;;;11.32;;
56321;SDS011;42227;6.376;-10.782;2022-07-23T10:11:07;22.20;;;11.65;;
56321;SDS011;42227;6.376;-10.782;2022-07-23T10:14:03;20.52;;;11.77;;
56321;SDS011;42227;6.376;-10.782;2022-07-23T10:16:52;22.85;;;10.98;;
56321;SDS011;42227;6.376;-10.782;2022-07-23T10:19:21;17.15;;;11.15;;
56321;SDS011;42227;6.376;-10.782;2022-07-23T10:21:52;16.58;;;12.73;;
56321;SDS011;42227;6.376;-10.782;2022-07-23T10:27:30;27.50;;;14.38;;
56321;SDS011;42227;6.376;-10.782;2022-07-23T10:30:05;18.23;;;11.48;;
56321;SDS011;42227;6.376;-10.782;2022-07-23T10:35:36;12.85;;;8.77;;
56321;SDS011;42227;6.376;-10.782;2022-07-23T10:38:15;20.42;;;10.43;;
56321;SDS011;42227;6.376;-10.782;2022-07-23T10:41:04;23.95;;;10.40;;
56321;SDS011;42227;6.376;-10.782;2022-07-23T10:43:33;31.00;;;10.13;;
56321;SDS011;42227;6.376;-10.782;2022-07-23T10:54:43;22.58;;;10.50;;
56321;SDS011;42227;6.376;-10.782;2022-07-23T10:57:12;20.73;;;11.93;;
56321;SDS011;42227;6.376;-10.782;2022-07-23T11:02:29;17.63;;;9.20;;
56321;SDS011;42227;6.376;-10.782;2022-07-23T11:05:03;19.65;;;10.40;;
56321;SDS011;42227;6.376;-10.782;2022-07-23T11:07:34;18.63;;;10.57;;
56321;SDS011;42227;6.376;-10.782;2022-07-23T11:10:03;20.15;;;9.85;;
56321;SDS011;42227;6.376;-10.782;2022-07-23T11:12:32;20.80;;;12.13;;
56321;SDS011;42227;6.376;-10.782;2022-07-23T11:15:10;17.25;;;9.82;;
56321;SDS011;42227;6.376;-10.782;2022-07-23T11:20:12;21.83;;;8.45;;
56321;SDS011;42227;6.376;-10.782;2022-07-23T11:27:06;17.25;;;9.48;;
56321;SDS011;42227;6.376;-10.782;2022-07-23T11:29:37;16.27;;;12.07;;
56321;SDS011;42227;6.376;-10.782;2022-07-23T11:32:22;15.98;;;9.85;;
56321;SDS011;42227;6.376;-10.782;2022-07-23T11:34:53;21.35;;;12.95;;
56321;SDS011;42227;6.376;-10.782;2022-07-23T11:40:10;15.30;;;9.57;;
56321;SDS011;42227;6.376;-10.782;2022-07-23T11:45:33;17.05;;;10.98;;
56321;SDS011;42227;6.376;-10.782;2022-07-23T11:48:07;16.67;;;10.57;;
56321;SDS011;42227;6.376;-10.782;2022-07-23T11:50:37;17.70;;;11.02;;
56321;SDS011;42227;6.376;-10.782;2022-07-23T11:53:05;19.33;;;11.52;;
56321;SDS011;42227;6.376;-10.782;2022-07-23T11:55:33;20.63;;;11.60;;
56321;SDS011;42227;6.376;-10.782;2022-07-23T11:58:02;19.15;;;9.82;;
56321;SDS011;42227;6.376;-10.782;2022-07-23T12:00:31;32.92;;;13.23;;
56321;SDS011;42227;6.376;-10.782;2022-07-23T12:03:06;18.05;;;13.13;;
56321;SDS011;42227;6.376;-10.782;2022-07-23T12:05:36;37.75;;;14.65;;
56321;SDS011;42227;6.376;-10.782;2022-07-23T12:09:44;18.60;;;10.90;;
56321;SDS011;42227;6.376;-10.782;2022-07-23T12:12:12;17.17;;;11.23;;
56321;SDS011;42227;6.376;-10.782;2022-07-23T12:14:51;26.10;;;12.98;;
56321;SDS011;42227;6.376;-10.782;2022-07-23T12:17:28;17.70;;;10.80;;
56321;SDS011;42227;6.376;-10.782;2022-07-23T12:19:59;23.02;;;11.57;;
56321;SDS011;42227;6.376;-10.782;2022-07-23T12:22:51;18.83;;;9.52;;
56321;SDS011;42227;6.376;-10.782;2022-07-23T12:25:20;22.00;;;8.80;;
56321;SDS011;42227;6.376;-10.782;2022-07-23T12:28:04;25.85;;;11.20;;
56321;SDS011;42227;6.376;-10.782;2022-07-23T12:30:49;16.48;;;8.98;;
56321;SDS011;42227;6.376;-10.782;2022-07-23T12:33:29;20.42;;;10.48;;
56321;SDS011;42227;6.376;-10.782;2022-07-23T12:36:06;20.23;;;11.73;;
56321;SDS011;42227;6.376;-10.782;2022-07-23T12:38:40;26.23;;;11.32;;
56321;SDS011;42227;6.376;-10.782;2022-07-23T12:41:11;17.63;;;10.20;;
56321;SDS011;42227;6.376;-10.782;2022-07-23T12:43:40;17.90;;;12.57;;
56321;SDS011;42227;6.376;-10.782;2022-07-23T12:46:11;16.25;;;10.68;;
56321;SDS011;42227;6.376;-10.782;2022-07-23T12:51:17;16.63;;;10.93;;
56321;SDS011;42227;6.376;-10.782;2022-07-23T12:53:48;21.92;;;12.85;;
56321;SDS011;42227;6.376;-10.782;2022-07-23T12:56:32;23.27;;;11.43;;
56321;SDS011;42227;6.376;-10.782;2022-07-23T12:59:05;19.73;;;11.43;;
56321;SDS011;42227;6.376;-10.782;2022-07-23T13:01:39;17.63;;;10.77;;
56321;SDS011;42227;6.376;-10.782;2022-07-23T13:04:14;22.73;;;12.00;;
56321;SDS011;42227;6.376;-10.782;2022-07-23T13:06:51;12.35;;;9.82;;
56321;SDS011;42227;6.376;-10.782;2022-07-23T13:09:24;18.38;;;11.90;;
56321;SDS011;42227;6.376;-10.782;2022-07-23T13:11:59;26.30;;;10.82;;
56321;SDS011;42227;6.376;-10.782;2022-07-23T13:14:27;13.77;;;9.40;;
56321;SDS011;42227;6.376;-10.782;2022-07-23T13:16:57;20.27;;;10.43;;
56321;SDS011;42227;6.376;-10.782;2022-07-23T13:19:26;20.85;;;10.88;;
56321;SDS011;42227;6.376;-10.782;2022-07-23T13:21:54;27.55;;;11.73;;
56321;SDS011;42227;6.376;-10.782;2022-07-23T13:24:24;20.40;;;11.63;;
56321;SDS011;42227;6.376;-10.782;2022-07-23T13:26:53;22.10;;;9.68;;
56321;SDS011;42227;6.376;-10.782;2022-07-23T13:29:21;15.68;;;9.90;;
56321;SDS011;42227;6.376;-10.782;2022-07-23T13:31:49;18.65;;;10.45;;
56321;SDS011;42227;6.376;-10.782;2022-07-23T13:34:18;28.67;;;12.82;;
56321;SDS011;42227;6.376;-10.782;2022-07-23T13:36:46;20.60;;;12.13;;
56321;SDS011;42227;6.376;-10.782;2022-07-23T13:39:15;17.58;;;11.13;;
56321;SDS011;42227;6.376;-10.782;2022-07-23T13:41:43;17.00;;;11.57;;
56321;SDS011;42227;6.376;-10.782;2022-07-23T13:44:17;26.98;;;12.65;;
56321;SDS011;42227;6.376;-10.782;2022-07-23T13:49:17;17.33;;;9.10;;
56321;SDS011;42227;6.376;-10.782;2022-07-23T13:51:45;16.17;;;10.63;;
56321;SDS011;42227;6.376;-10.782;2022-07-23T13:54:14;17.98;;;10.85;;
56321;SDS011;42227;6.376;-10.782;2022-07-23T13:56:42;27.40;;;11.95;;
56321;SDS011;42227;6.376;-10.782;2022-07-23T13:59:11;16.73;;;8.93;;
56321;SDS011;42227;6.376;-10.782;2022-07-23T14:01:39;26.80;;;11.90;;
56321;SDS011;42227;6.376;-10.782;2022-07-23T14:04:27;17.08;;;10.20;;
56321;SDS011;42227;6.376;-10.782;2022-07-23T14:06:56;16.33;;;8.38;;
56321;SDS011;42227;6.376;-10.782;2022-07-23T14:09:24;17.15;;;9.70;;
56321;SDS011;42227;6.376;-10.782;2022-07-23T14:11:54;16.15;;;10.13;;
56321;SDS011;42227;6.376;-10.782;2022-07-23T14:14:22;19.45;;;11.13;;
56321;SDS011;42227;6.376;-10.782;2022-07-23T14:16:50;14.52;;;9.18;;
56321;SDS011;42227;6.376;-10.782;2022-07-23T14:19:19;25.77;;;10.68;;
56321;SDS011;42227;6.376;-10.782;2022-07-23T14:21:47;24.88;;;10.32;;
56321;SDS011;42227;6.376;-10.782;2022-07-23T14:24:16;21.67;;;9.50;;
56321;SDS011;42227;6.376;-10.782;2022-07-23T14:26:44;16.52;;;9.05;;
56321;SDS011;42227;6.376;-10.782;2022-07-23T14:29:13;16.00;;;9.73;;
56321;SDS011;42227;6.376;-10.782;2022-07-23T14:31:42;10.52;;;8.00;;
56321;SDS011;42227;6.376;-10.782;2022-07-23T14:34:13;13.27;;;8.30;;
56321;SDS011;42227;6.376;-10.782;2022-07-23T14:36:41;18.15;;;7.75;;
56321;SDS011;42227;6.376;-10.782;2022-07-23T14:39:10;20.13;;;9.57;;
56321;SDS011;42227;6.376;-10.782;2022-07-23T14:41:40;16.98;;;9.35;;
56321;SDS011;42227;6.376;-10.782;2022-07-23T14:44:08;10.27;;;7.50;;
56321;SDS011;42227;6.376;-10.782;2022-07-23T14:46:36;14.70;;;9.23;;
56321;SDS011;42227;6.376;-10.782;2022-07-23T14:49:05;18.55;;;10.82;;
56321;SDS011;42227;6.376;-10.782;2022-07-23T14:51:35;15.02;;;10.25;;
56321;SDS011;42227;6.376;-10.782;2022-07-23T14:54:03;16.27;;;9.05;;
56321;SDS011;42227;6.376;-10.782;2022-07-23T14:56:32;28.58;;;12.10;;
56321;SDS011;42227;6.376;-10.782;2022-07-23T14:59:01;16.90;;;10.25;;
56321;SDS011;42227;6.376;-10.782;2022-07-23T15:01:32;20.38;;;9.80;;
56321;SDS011;42227;6.376;-10.782;2022-07-23T15:04:01;29.63;;;8.75;;
56321;SDS011;42227;6.376;-10.782;2022-07-23T15:06:50;22.52;;;10.00;;
56321;SDS011;42227;6.376;-10.782;2022-07-23T15:09:19;21.17;;;11.02;;
56321;SDS011;42227;6.376;-10.782;2022-07-23T15:11:48;22.75;;;11.32;;
56321;SDS011;42227;6.376;-10.782;2022-07-23T15:14:16;17.55;;;11.43;;
56321;SDS011;42227;6.376;-10.782;2022-07-23T15:16:55;21.05;;;9.95;;